sensor_id;sensor_type;location;lat;lon;timestamp;temperature;humidity
21616;DHT22;10970;48.714;9.584;2023-02-15T00:01:40;-0.40;99.90
21616;DHT22;10970;48.714;9.584;2023-02-15T00:04:06;-0.40;99.90
21616;DHT22;10970;48.714;9.584;2023-02-15T00:06:33;-0.50;99.90
21616;DHT22;10970;48.714;9.584;2023-02-15T00:08:59;-0.50;99.90
21616;DHT22;10970;48.714;9.584;2023-02-15T00:11:25;-0.50;99.90
21616;DHT22;10970;48.714;9.584;2023-02-15T00:16:42;-0.60;99.90
21616;DHT22;10970;48.714;9.584;2023-02-15T00:19:09;-0.70;99.90
21616;DHT22;10970;48.714;9.584;2023-02-15T00:21:36;-0.70;99.90
21616;DHT22;10970;48.714;9.584;2023-02-15T00:24:04;-0.70;99.90
21616;DHT22;10970;48.714;9.584;2023-02-15T00:26:30;-0.80;99.90
21616;DHT22;10970;48.714;9.584;2023-02-15T00:28:56;-0.80;99.90
21616;DHT22;10970;48.714;9.584;2023-02-15T00:31:27;-0.80;99.90
21616;DHT22;10970;48.714;9.584;2023-02-15T00:33:52;-0.90;99.90
21616;DHT22;10970;48.714;9.584;2023-02-15T00:36:18;-0.90;99.90
21616;DHT22;10970;48.714;9.584;2023-02-15T00:38:44;-0.90;99.90
21616;DHT22;10970;48.714;9.584;2023-02-15T00:41:09;-0.90;99.90
21616;DHT22;10970;48.714;9.584;2023-02-15T00:43:36;-0.80;99.90
21616;DHT22;10970;48.714;9.584;2023-02-15T00:46:03;-0.80;99.90
21616;DHT22;10970;48.714;9.584;2023-02-15T00:48:29;-0.80;99.90
21616;DHT22;10970;48.714;9.584;2023-02-15T00:50:57;-0.80;99.90
21616;DHT22;10970;48.714;9.584;2023-02-15T00:53:25;-0.80;99.90
21616;DHT22;10970;48.714;9.584;2023-02-15T00:55:50;-0.90;99.90
21616;DHT22;10970;48.714;9.584;2023-02-15T00:58:16;-0.90;99.90
21616;DHT22;10970;48.714;9.584;2023-02-15T01:00:44;-1.00;99.90
21616;DHT22;10970;48.714;9.584;2023-02-15T01:03:11;-1.00;99.90
21616;DHT22;10970;48.714;9.584;2023-02-15T01:05:37;-1.00;99.90
21616;DHT22;10970;48.714;9.584;2023-02-15T01:08:03;-1.00;99.90
21616;DHT22;10970;48.714;9.584;2023-02-15T01:10:29;-0.90;99.90
21616;DHT22;10970;48.714;9.584;2023-02-15T01:12:55;-1.00;99.90
21616;DHT22;10970;48.714;9.584;2023-02-15T01:15:21;-1.00;99.90
21616;DHT22;10970;48.714;9.584;2023-02-15T01:17:47;-1.00;99.90
21616;DHT22;10970;48.714;9.584;2023-02-15T01:20:27;-1.10;99.90
21616;DHT22;10970;48.714;9.584;2023-02-15T01:22:53;-1.10;99.90
21616;DHT22;10970;48.714;9.584;2023-02-15T01:25:21;-1.20;99.90
21616;DHT22;10970;48.714;9.584;2023-02-15T01:27:47;-1.10;99.90
21616;DHT22;10970;48.714;9.584;2023-02-15T01:30:14;-1.10;99.90
21616;DHT22;10970;48.714;9.584;2023-02-15T01:32:40;-1.20;99.90
21616;DHT22;10970;48.714;9.584;2023-02-15T01:35:06;-1.20;99.90
21616;DHT22;10970;48.714;9.584;2023-02-15T01:37:33;-1.30;99.90
21616;DHT22;10970;48.714;9.584;2023-02-15T01:39:58;-1.30;99.90
21616;DHT22;10970;48.714;9.584;2023-02-15T01:42:27;-1.30;99.90
21616;DHT22;10970;48.714;9.584;2023-02-15T01:44:59;-1.30;99.90
21616;DHT22;10970;48.714;9.584;2023-02-15T01:47:44;-1.30;99.90
21616;DHT22;10970;48.714;9.584;2023-02-15T01:50:16;-1.30;99.90
21616;DHT22;10970;48.714;9.584;2023-02-15T01:55:45;-1.40;99.90
21616;DHT22;10970;48.714;9.584;2023-02-15T01:58:12;-1.40;99.90
21616;DHT22;10970;48.714;9.584;2023-02-15T02:00:39;-1.30;99.90
21616;DHT22;10970;48.714;9.584;2023-02-15T02:03:05;-1.40;99.90
21616;DHT22;10970;48.714;9.584;2023-02-15T02:05:31;-1.40;99.90
21616;DHT22;10970;48.714;9.584;2023-02-15T02:08:00;-1.40;99.90
21616;DHT22;10970;48.714;9.584;2023-02-15T02:10:26;-1.40;99.90
21616;DHT22;10970;48.714;9.584;2023-02-15T02:12:56;-1.50;99.90
21616;DHT22;10970;48.714;9.584;2023-02-15T02:15:47;-1.50;99.90
21616;DHT22;10970;48.714;9.584;2023-02-15T02:18:22;-1.50;99.90
21616;DHT22;10970;48.714;9.584;2023-02-15T02:21:19;-1.50;99.90
21616;DHT22;10970;48.714;9.584;2023-02-15T02:30:16;-1.60;99.90
21616;DHT22;10970;48.714;9.584;2023-02-15T02:33:08;-1.60;99.90
21616;DHT22;10970;48.714;9.584;2023-02-15T02:38:40;-1.50;99.90
21616;DHT22;10970;48.714;9.584;2023-02-15T02:41:23;-1.70;99.90
21616;DHT22;10970;48.714;9.584;2023-02-15T02:43:59;-1.70;99.90
21616;DHT22;10970;48.714;9.584;2023-02-15T02:46:43;-1.70;99.90
21616;DHT22;10970;48.714;9.584;2023-02-15T02:49:09;-1.80;99.90
21616;DHT22;10970;48.714;9.584;2023-02-15T02:51:35;-1.80;99.90
21616;DHT22;10970;48.714;9.584;2023-02-15T02:54:04;-1.80;99.90
21616;DHT22;10970;48.714;9.584;2023-02-15T02:56:43;-1.80;99.90
21616;DHT22;10970;48.714;9.584;2023-02-15T02:59:20;-1.80;99.90
21616;DHT22;10970;48.714;9.584;2023-02-15T03:01:57;-1.60;99.90
21616;DHT22;10970;48.714;9.584;2023-02-15T03:04:31;-1.70;99.90
21616;DHT22;10970;48.714;9.584;2023-02-15T03:07:01;-1.70;99.90
21616;DHT22;10970;48.714;9.584;2023-02-15T03:09:37;-1.80;99.90
21616;DHT22;10970;48.714;9.584;2023-02-15T03:12:20;-1.80;99.90
21616;DHT22;10970;48.714;9.584;2023-02-15T03:14:49;-1.80;99.90
21616;DHT22;10970;48.714;9.584;2023-02-15T03:17:18;-1.80;99.90
21616;DHT22;10970;48.714;9.584;2023-02-15T03:19:47;-1.90;99.90
21616;DHT22;10970;48.714;9.584;2023-02-15T03:22:19;-1.90;99.90
21616;DHT22;10970;48.714;9.584;2023-02-15T03:25:04;-1.90;99.90
21616;DHT22;10970;48.714;9.584;2023-02-15T03:27:37;-1.80;99.90
21616;DHT22;10970;48.714;9.584;2023-02-15T03:30:05;-1.80;99.90
21616;DHT22;10970;48.714;9.584;2023-02-15T03:32:33;-1.80;99.90
21616;DHT22;10970;48.714;9.584;2023-02-15T03:35:00;-1.90;99.90
21616;DHT22;10970;48.714;9.584;2023-02-15T03:37:40;-1.90;99.90
21616;DHT22;10970;48.714;9.584;2023-02-15T03:40:31;-1.90;99.90
21616;DHT22;10970;48.714;9.584;2023-02-15T03:45:52;-2.00;99.90
21616;DHT22;10970;48.714;9.584;2023-02-15T03:48:27;-1.90;99.90
21616;DHT22;10970;48.714;9.584;2023-02-15T03:51:00;-1.90;99.90
21616;DHT22;10970;48.714;9.584;2023-02-15T03:53:48;-2.00;99.90
21616;DHT22;10970;48.714;9.584;2023-02-15T03:56:15;-2.00;99.90
21616;DHT22;10970;48.714;9.584;2023-02-15T03:58:40;-2.00;99.90
21616;DHT22;10970;48.714;9.584;2023-02-15T04:01:38;-1.90;99.90
21616;DHT22;10970;48.714;9.584;2023-02-15T04:04:33;-1.90;99.90
21616;DHT22;10970;48.714;9.584;2023-02-15T04:07:00;-1.90;99.90
21616;DHT22;10970;48.714;9.584;2023-02-15T04:09:26;-2.00;99.90
21616;DHT22;10970;48.714;9.584;2023-02-15T04:12:10;-2.00;99.90
21616;DHT22;10970;48.714;9.584;2023-02-15T04:14:36;-2.00;99.90
21616;DHT22;10970;48.714;9.584;2023-02-15T04:17:20;-2.10;99.90
21616;DHT22;10970;48.714;9.584;2023-02-15T04:19:46;-2.10;99.90
21616;DHT22;10970;48.714;9.584;2023-02-15T04:22:30;-2.10;99.90
21616;DHT22;10970;48.714;9.584;2023-02-15T04:25:14;-2.10;99.90
21616;DHT22;10970;48.714;9.584;2023-02-15T04:27:45;-2.20;99.90
21616;DHT22;10970;48.714;9.584;2023-02-15T04:30:12;-2.20;99.90
21616;DHT22;10970;48.714;9.584;2023-02-15T04:32:38;-2.20;99.90
21616;DHT22;10970;48.714;9.584;2023-02-15T04:35:05;-2.20;99.90
21616;DHT22;10970;48.714;9.584;2023-02-15T04:37:32;-2.10;99.90
21616;DHT22;10970;48.714;9.584;2023-02-15T04:39:58;-2.00;99.90
21616;DHT22;10970;48.714;9.584;2023-02-15T04:42:26;-2.00;99.90
21616;DHT22;10970;48.714;9.584;2023-02-15T04:44:52;-2.00;99.90
21616;DHT22;10970;48.714;9.584;2023-02-15T04:47:18;-2.10;99.90
21616;DHT22;10970;48.714;9.584;2023-02-15T04:49:44;-2.10;99.90
21616;DHT22;10970;48.714;9.584;2023-02-15T04:52:10;-2.20;99.90
21616;DHT22;10970;48.714;9.584;2023-02-15T04:54:36;-2.20;99.90
21616;DHT22;10970;48.714;9.584;2023-02-15T04:57:01;-2.10;99.90
21616;DHT22;10970;48.714;9.584;2023-02-15T04:59:27;-2.10;99.90
21616;DHT22;10970;48.714;9.584;2023-02-15T05:01:53;-2.00;99.90
21616;DHT22;10970;48.714;9.584;2023-02-15T05:04:18;-2.10;99.90
21616;DHT22;10970;48.714;9.584;2023-02-15T05:06:44;-2.20;99.90
21616;DHT22;10970;48.714;9.584;2023-02-15T05:09:11;-2.20;99.90
21616;DHT22;10970;48.714;9.584;2023-02-15T05:11:37;-2.10;99.90
21616;DHT22;10970;48.714;9.584;2023-02-15T05:14:03;-2.20;99.90
21616;DHT22;10970;48.714;9.584;2023-02-15T05:16:28;-2.20;99.90
21616;DHT22;10970;48.714;9.584;2023-02-15T05:18:54;-2.70;99.90
21616;DHT22;10970;48.714;9.584;2023-02-15T05:21:19;-2.20;99.90
21616;DHT22;10970;48.714;9.584;2023-02-15T05:23:45;-2.30;99.90
21616;DHT22;10970;48.714;9.584;2023-02-15T05:26:12;-2.20;99.90
21616;DHT22;10970;48.714;9.584;2023-02-15T05:28:59;-2.20;99.90
21616;DHT22;10970;48.714;9.584;2023-02-15T05:31:25;-2.30;99.90
21616;DHT22;10970;48.714;9.584;2023-02-15T05:33:50;-2.30;99.90
21616;DHT22;10970;48.714;9.584;2023-02-15T05:36:16;-2.30;99.90
21616;DHT22;10970;48.714;9.584;2023-02-15T05:38:42;-2.20;99.90
21616;DHT22;10970;48.714;9.584;2023-02-15T05:41:08;-2.10;99.90
21616;DHT22;10970;48.714;9.584;2023-02-15T05:43:35;-2.10;99.90
21616;DHT22;10970;48.714;9.584;2023-02-15T05:46:02;-2.20;99.90
21616;DHT22;10970;48.714;9.584;2023-02-15T05:48:27;-2.30;99.90
21616;DHT22;10970;48.714;9.584;2023-02-15T05:51:10;-2.30;99.90
21616;DHT22;10970;48.714;9.584;2023-02-15T05:53:41;-2.40;99.90
21616;DHT22;10970;48.714;9.584;2023-02-15T05:56:09;-2.40;99.90
21616;DHT22;10970;48.714;9.584;2023-02-15T05:58:40;-2.40;99.90
21616;DHT22;10970;48.714;9.584;2023-02-15T06:01:19;-2.40;99.90
21616;DHT22;10970;48.714;9.584;2023-02-15T06:03:47;-2.40;99.90
21616;DHT22;10970;48.714;9.584;2023-02-15T06:06:13;-2.40;99.90
21616;DHT22;10970;48.714;9.584;2023-02-15T06:08:39;-2.50;99.90
21616;DHT22;10970;48.714;9.584;2023-02-15T06:11:05;-2.40;99.90
21616;DHT22;10970;48.714;9.584;2023-02-15T06:13:31;-2.50;99.90
21616;DHT22;10970;48.714;9.584;2023-02-15T06:15:57;-2.50;99.90
21616;DHT22;10970;48.714;9.584;2023-02-15T06:18:23;-2.40;99.90
21616;DHT22;10970;48.714;9.584;2023-02-15T06:20:49;-2.40;99.90
21616;DHT22;10970;48.714;9.584;2023-02-15T06:23:15;-2.30;99.90
21616;DHT22;10970;48.714;9.584;2023-02-15T06:25:40;-2.40;99.90
21616;DHT22;10970;48.714;9.584;2023-02-15T06:28:06;-2.40;99.90
21616;DHT22;10970;48.714;9.584;2023-02-15T06:30:32;-2.40;99.90
21616;DHT22;10970;48.714;9.584;2023-02-15T06:32:58;-2.40;99.90
21616;DHT22;10970;48.714;9.584;2023-02-15T06:35:23;-2.40;99.90
21616;DHT22;10970;48.714;9.584;2023-02-15T06:37:49;-2.40;99.90
21616;DHT22;10970;48.714;9.584;2023-02-15T06:40:15;-2.30;99.90
21616;DHT22;10970;48.714;9.584;2023-02-15T06:42:44;-2.30;99.90
21616;DHT22;10970;48.714;9.584;2023-02-15T06:45:10;-2.30;99.90
21616;DHT22;10970;48.714;9.584;2023-02-15T06:47:36;-2.30;99.90
21616;DHT22;10970;48.714;9.584;2023-02-15T06:50:03;-2.40;99.90
21616;DHT22;10970;48.714;9.584;2023-02-15T06:52:29;-2.40;99.90
21616;DHT22;10970;48.714;9.584;2023-02-15T06:54:54;-2.40;99.90
21616;DHT22;10970;48.714;9.584;2023-02-15T06:57:20;-2.40;99.90
21616;DHT22;10970;48.714;9.584;2023-02-15T06:59:46;-2.30;99.90
21616;DHT22;10970;48.714;9.584;2023-02-15T07:02:12;-2.20;99.90
21616;DHT22;10970;48.714;9.584;2023-02-15T07:04:38;-2.20;99.90
21616;DHT22;10970;48.714;9.584;2023-02-15T07:07:04;-2.20;99.90
21616;DHT22;10970;48.714;9.584;2023-02-15T07:09:32;-2.20;99.90
21616;DHT22;10970;48.714;9.584;2023-02-15T07:11:58;-2.20;99.90
21616;DHT22;10970;48.714;9.584;2023-02-15T07:14:43;-2.20;99.90
21616;DHT22;10970;48.714;9.584;2023-02-15T07:17:08;-2.20;99.90
21616;DHT22;10970;48.714;9.584;2023-02-15T07:19:34;-2.20;99.90
21616;DHT22;10970;48.714;9.584;2023-02-15T07:21:59;-2.10;99.90
21616;DHT22;10970;48.714;9.584;2023-02-15T07:24:25;-2.10;99.90
21616;DHT22;10970;48.714;9.584;2023-02-15T07:26:51;-2.00;99.90
21616;DHT22;10970;48.714;9.584;2023-02-15T07:29:16;-1.90;99.90
21616;DHT22;10970;48.714;9.584;2023-02-15T07:31:42;-1.80;99.90
21616;DHT22;10970;48.714;9.584;2023-02-15T07:34:10;-1.70;99.90
21616;DHT22;10970;48.714;9.584;2023-02-15T07:36:36;-1.70;99.90
21616;DHT22;10970;48.714;9.584;2023-02-15T07:39:02;-1.70;99.90
21616;DHT22;10970;48.714;9.584;2023-02-15T07:41:28;-1.70;99.90
21616;DHT22;10970;48.714;9.584;2023-02-15T07:43:53;-1.70;99.90
21616;DHT22;10970;48.714;9.584;2023-02-15T07:46:19;-1.70;99.90
21616;DHT22;10970;48.714;9.584;2023-02-15T07:48:46;-1.60;99.90
21616;DHT22;10970;48.714;9.584;2023-02-15T07:51:12;-1.60;99.90
21616;DHT22;10970;48.714;9.584;2023-02-15T07:53:39;-1.60;99.90
21616;DHT22;10970;48.714;9.584;2023-02-15T07:56:08;-1.50;99.90
21616;DHT22;10970;48.714;9.584;2023-02-15T07:58:34;-1.50;99.90
21616;DHT22;10970;48.714;9.584;2023-02-15T08:01:34;-1.40;99.90
21616;DHT22;10970;48.714;9.584;2023-02-15T08:04:00;-1.40;99.90
21616;DHT22;10970;48.714;9.584;2023-02-15T08:06:28;-1.30;99.90
21616;DHT22;10970;48.714;9.584;2023-02-15T08:08:54;-1.20;99.90
21616;DHT22;10970;48.714;9.584;2023-02-15T08:11:30;-0.50;99.90
21616;DHT22;10970;48.714;9.584;2023-02-15T08:14:06;-1.00;99.90
21616;DHT22;10970;48.714;9.584;2023-02-15T08:21:36;-0.60;99.90
21616;DHT22;10970;48.714;9.584;2023-02-15T08:24:04;-0.50;99.90
21616;DHT22;10970;48.714;9.584;2023-02-15T08:26:31;-0.40;99.90
21616;DHT22;10970;48.714;9.584;2023-02-15T08:28:58;-0.30;99.90
21616;DHT22;10970;48.714;9.584;2023-02-15T08:31:24;-0.30;99.90
21616;DHT22;10970;48.714;9.584;2023-02-15T08:33:51;-0.20;99.90
21616;DHT22;10970;48.714;9.584;2023-02-15T08:36:20;-0.10;99.90
21616;DHT22;10970;48.714;9.584;2023-02-15T08:38:46;0.00;99.90
21616;DHT22;10970;48.714;9.584;2023-02-15T08:41:22;0.10;99.90
21616;DHT22;10970;48.714;9.584;2023-02-15T08:43:51;0.20;99.90
21616;DHT22;10970;48.714;9.584;2023-02-15T08:46:18;0.30;99.90
21616;DHT22;10970;48.714;9.584;2023-02-15T08:48:44;0.40;99.90
21616;DHT22;10970;48.714;9.584;2023-02-15T08:53:41;0.60;99.90
21616;DHT22;10970;48.714;9.584;2023-02-15T08:56:08;0.70;99.90
21616;DHT22;10970;48.714;9.584;2023-02-15T08:58:34;0.70;99.90
21616;DHT22;10970;48.714;9.584;2023-02-15T09:01:01;0.90;99.90
21616;DHT22;10970;48.714;9.584;2023-02-15T09:03:29;0.90;99.90
21616;DHT22;10970;48.714;9.584;2023-02-15T09:05:59;0.90;99.90
21616;DHT22;10970;48.714;9.584;2023-02-15T09:08:26;1.00;99.90
21616;DHT22;10970;48.714;9.584;2023-02-15T09:10:52;1.10;99.90
21616;DHT22;10970;48.714;9.584;2023-02-15T09:13:18;1.20;99.90
21616;DHT22;10970;48.714;9.584;2023-02-15T09:15:44;1.40;99.90
21616;DHT22;10970;48.714;9.584;2023-02-15T09:18:09;1.50;99.90
21616;DHT22;10970;48.714;9.584;2023-02-15T09:20:36;1.50;99.90
21616;DHT22;10970;48.714;9.584;2023-02-15T09:23:02;1.60;99.90
21616;DHT22;10970;48.714;9.584;2023-02-15T09:25:28;1.70;99.90
21616;DHT22;10970;48.714;9.584;2023-02-15T09:27:54;1.90;99.90
21616;DHT22;10970;48.714;9.584;2023-02-15T09:30:20;2.00;99.90
21616;DHT22;10970;48.714;9.584;2023-02-15T09:32:47;2.10;99.90
21616;DHT22;10970;48.714;9.584;2023-02-15T09:35:12;2.20;99.90
21616;DHT22;10970;48.714;9.584;2023-02-15T09:37:38;2.30;99.90
21616;DHT22;10970;48.714;9.584;2023-02-15T09:40:04;2.30;99.90
21616;DHT22;10970;48.714;9.584;2023-02-15T09:45:26;2.50;99.90
21616;DHT22;10970;48.714;9.584;2023-02-15T09:50:33;2.80;99.90
21616;DHT22;10970;48.714;9.584;2023-02-15T10:12:49;3.80;99.90
21616;DHT22;10970;48.714;9.584;2023-02-15T10:18:42;3.90;99.90
21616;DHT22;10970;48.714;9.584;2023-02-15T10:26:44;4.30;99.90
21616;DHT22;10970;48.714;9.584;2023-02-15T10:31:55;4.50;99.90
21616;DHT22;10970;48.714;9.584;2023-02-15T10:34:38;4.60;99.90
21616;DHT22;10970;48.714;9.584;2023-02-15T10:45:31;5.00;99.90
21616;DHT22;10970;48.714;9.584;2023-02-15T10:50:47;5.10;99.90
21616;DHT22;10970;48.714;9.584;2023-02-15T10:58:55;5.50;99.90
21616;DHT22;10970;48.714;9.584;2023-02-15T11:04:39;5.70;99.90
21616;DHT22;10970;48.714;9.584;2023-02-15T11:09:51;5.90;99.90
21616;DHT22;10970;48.714;9.584;2023-02-15T11:12:22;5.90;99.90
21616;DHT22;10970;48.714;9.584;2023-02-15T11:17:19;6.10;99.90
21616;DHT22;10970;48.714;9.584;2023-02-15T11:22:34;6.20;99.90
21616;DHT22;10970;48.714;9.584;2023-02-15T11:25:02;6.40;99.90
21616;DHT22;10970;48.714;9.584;2023-02-15T11:27:39;6.50;99.90
21616;DHT22;10970;48.714;9.584;2023-02-15T11:32:44;6.50;99.90
21616;DHT22;10970;48.714;9.584;2023-02-15T11:40:35;6.80;99.90
21616;DHT22;10970;48.714;9.584;2023-02-15T11:43:10;7.00;99.90
21616;DHT22;10970;48.714;9.584;2023-02-15T11:45:40;7.00;99.90
21616;DHT22;10970;48.714;9.584;2023-02-15T11:48:12;7.10;99.90
21616;DHT22;10970;48.714;9.584;2023-02-15T11:50:38;7.30;99.90
21616;DHT22;10970;48.714;9.584;2023-02-15T11:53:09;7.40;99.90
21616;DHT22;10970;48.714;9.584;2023-02-15T11:55:37;7.40;99.90
21616;DHT22;10970;48.714;9.584;2023-02-15T11:58:40;7.50;99.90
21616;DHT22;10970;48.714;9.584;2023-02-15T12:07:03;7.70;99.90
21616;DHT22;10970;48.714;9.584;2023-02-15T12:10:04;7.90;99.90
21616;DHT22;10970;48.714;9.584;2023-02-15T12:12:37;8.00;99.90
21616;DHT22;10970;48.714;9.584;2023-02-15T12:15:08;8.10;99.90
21616;DHT22;10970;48.714;9.584;2023-02-15T12:17:48;8.20;99.90
21616;DHT22;10970;48.714;9.584;2023-02-15T12:20:20;8.40;99.90
21616;DHT22;10970;48.714;9.584;2023-02-15T12:25:26;8.40;99.90
21616;DHT22;10970;48.714;9.584;2023-02-15T12:27:53;8.50;99.90
21616;DHT22;10970;48.714;9.584;2023-02-15T12:30:23;8.60;99.90
21616;DHT22;10970;48.714;9.584;2023-02-15T12:35:35;8.70;99.90
21616;DHT22;10970;48.714;9.584;2023-02-15T12:38:21;8.70;99.90
21616;DHT22;10970;48.714;9.584;2023-02-15T12:41:22;8.70;99.90
21616;DHT22;10970;48.714;9.584;2023-02-15T12:44:04;8.80;99.90
21616;DHT22;10970;48.714;9.584;2023-02-15T12:46:30;8.90;99.90
21616;DHT22;10970;48.714;9.584;2023-02-15T12:49:25;9.00;99.90
21616;DHT22;10970;48.714;9.584;2023-02-15T12:51:57;9.10;99.90
21616;DHT22;10970;48.714;9.584;2023-02-15T12:57:32;9.20;99.90
21616;DHT22;10970;48.714;9.584;2023-02-15T13:00:04;9.30;99.90
21616;DHT22;10970;48.714;9.584;2023-02-15T13:02:43;9.40;99.90
21616;DHT22;10970;48.714;9.584;2023-02-15T13:07:45;9.60;99.90
21616;DHT22;10970;48.714;9.584;2023-02-15T13:10:28;9.60;99.90
21616;DHT22;10970;48.714;9.584;2023-02-15T13:12:55;9.60;99.90
21616;DHT22;10970;48.714;9.584;2023-02-15T13:15:37;9.80;99.90
21616;DHT22;10970;48.714;9.584;2023-02-15T13:18:07;9.80;99.90
21616;DHT22;10970;48.714;9.584;2023-02-15T13:20:36;9.80;99.90
21616;DHT22;10970;48.714;9.584;2023-02-15T13:23:13;9.90;99.90
21616;DHT22;10970;48.714;9.584;2023-02-15T13:25:45;10.00;99.90
21616;DHT22;10970;48.714;9.584;2023-02-15T13:28:18;10.00;99.90
21616;DHT22;10970;48.714;9.584;2023-02-15T13:30:46;10.10;99.90
21616;DHT22;10970;48.714;9.584;2023-02-15T13:33:33;10.00;99.90
21616;DHT22;10970;48.714;9.584;2023-02-15T13:36:21;10.10;99.90
21616;DHT22;10970;48.714;9.584;2023-02-15T13:38:51;10.10;99.90
21616;DHT22;10970;48.714;9.584;2023-02-15T13:44:41;10.30;99.90
21616;DHT22;10970;48.714;9.584;2023-02-15T13:47:26;10.60;99.90
21616;DHT22;10970;48.714;9.584;2023-02-15T13:52:35;10.60;99.90
21616;DHT22;10970;48.714;9.584;2023-02-15T14:09:15;11.00;99.90
21616;DHT22;10970;48.714;9.584;2023-02-15T14:26:06;11.30;99.90
21616;DHT22;10970;48.714;9.584;2023-02-15T14:31:43;11.30;99.90
21616;DHT22;10970;48.714;9.584;2023-02-15T14:34:31;11.20;99.90
21616;DHT22;10970;48.714;9.584;2023-02-15T14:37:03;11.10;99.90
21616;DHT22;10970;48.714;9.584;2023-02-15T14:40:03;11.30;99.90
21616;DHT22;10970;48.714;9.584;2023-02-15T14:43:12;11.40;99.90
21616;DHT22;10970;48.714;9.584;2023-02-15T14:45:53;11.40;99.90
21616;DHT22;10970;48.714;9.584;2023-02-15T14:48:26;11.50;99.90
21616;DHT22;10970;48.714;9.584;2023-02-15T14:50:55;11.60;99.90
21616;DHT22;10970;48.714;9.584;2023-02-15T14:56:25;11.70;99.90
21616;DHT22;10970;48.714;9.584;2023-02-15T15:01:34;11.30;99.90
21616;DHT22;10970;48.714;9.584;2023-02-15T15:04:12;11.30;99.90
21616;DHT22;10970;48.714;9.584;2023-02-15T15:06:40;11.30;99.90
21616;DHT22;10970;48.714;9.584;2023-02-15T15:09:14;11.40;99.90
21616;DHT22;10970;48.714;9.584;2023-02-15T15:11:52;11.50;99.90
21616;DHT22;10970;48.714;9.584;2023-02-15T15:17:06;11.50;99.90
21616;DHT22;10970;48.714;9.584;2023-02-15T15:32:48;12.10;99.90
21616;DHT22;10970;48.714;9.584;2023-02-15T15:38:29;12.10;99.90
21616;DHT22;10970;48.714;9.584;2023-02-15T15:44:39;12.30;99.90
21616;DHT22;10970;48.714;9.584;2023-02-15T15:50:19;12.10;99.90
21616;DHT22;10970;48.714;9.584;2023-02-15T15:52:54;12.00;99.90
21616;DHT22;10970;48.714;9.584;2023-02-15T15:55:22;11.90;99.90
21616;DHT22;10970;48.714;9.584;2023-02-15T15:57:59;11.80;99.90
21616;DHT22;10970;48.714;9.584;2023-02-15T16:02:58;11.50;99.90
21616;DHT22;10970;48.714;9.584;2023-02-15T16:05:24;11.20;99.90
21616;DHT22;10970;48.714;9.584;2023-02-15T16:07:50;11.10;99.90
21616;DHT22;10970;48.714;9.584;2023-02-15T16:10:25;10.90;99.90
21616;DHT22;10970;48.714;9.584;2023-02-15T16:12:51;10.70;99.90
21616;DHT22;10970;48.714;9.584;2023-02-15T16:15:23;10.50;99.90
21616;DHT22;10970;48.714;9.584;2023-02-15T16:17:52;10.30;99.90
21616;DHT22;10970;48.714;9.584;2023-02-15T16:22:53;9.90;99.90
21616;DHT22;10970;48.714;9.584;2023-02-15T16:28:12;9.60;99.90
21616;DHT22;10970;48.714;9.584;2023-02-15T16:30:39;9.40;99.90
21616;DHT22;10970;48.714;9.584;2023-02-15T16:35:33;9.20;99.90
21616;DHT22;10970;48.714;9.584;2023-02-15T16:38:00;9.00;99.90
21616;DHT22;10970;48.714;9.584;2023-02-15T16:40:47;8.80;99.90
21616;DHT22;10970;48.714;9.584;2023-02-15T16:43:16;8.60;99.90
21616;DHT22;10970;48.714;9.584;2023-02-15T16:45:44;8.40;99.90
21616;DHT22;10970;48.714;9.584;2023-02-15T16:48:21;8.30;99.90
21616;DHT22;10970;48.714;9.584;2023-02-15T16:50:51;8.10;99.90
21616;DHT22;10970;48.714;9.584;2023-02-15T16:53:26;8.00;99.90
21616;DHT22;10970;48.714;9.584;2023-02-15T16:56:00;8.00;99.90
21616;DHT22;10970;48.714;9.584;2023-02-15T16:58:36;8.10;99.90
21616;DHT22;10970;48.714;9.584;2023-02-15T17:01:03;7.80;99.90
21616;DHT22;10970;48.714;9.584;2023-02-15T17:03:31;7.60;99.90
21616;DHT22;10970;48.714;9.584;2023-02-15T17:05:59;7.40;99.90
21616;DHT22;10970;48.714;9.584;2023-02-15T17:08:33;7.20;99.90
21616;DHT22;10970;48.714;9.584;2023-02-15T17:11:16;7.00;99.90
21616;DHT22;10970;48.714;9.584;2023-02-15T17:14:19;7.00;99.90
21616;DHT22;10970;48.714;9.584;2023-02-15T17:16:52;6.90;99.90
21616;DHT22;10970;48.714;9.584;2023-02-15T17:19:28;6.80;99.90
21616;DHT22;10970;48.714;9.584;2023-02-15T17:21:56;6.80;99.90
21616;DHT22;10970;48.714;9.584;2023-02-15T17:24:41;6.60;99.90
21616;DHT22;10970;48.714;9.584;2023-02-15T17:27:13;6.50;99.90
21616;DHT22;10970;48.714;9.584;2023-02-15T17:29:45;6.30;99.90
21616;DHT22;10970;48.714;9.584;2023-02-15T17:32:21;6.20;99.90
21616;DHT22;10970;48.714;9.584;2023-02-15T17:37:47;5.90;99.90
21616;DHT22;10970;48.714;9.584;2023-02-15T17:40:28;5.80;99.90
21616;DHT22;10970;48.714;9.584;2023-02-15T17:42:54;5.80;99.90
21616;DHT22;10970;48.714;9.584;2023-02-15T17:45:21;5.70;99.90
21616;DHT22;10970;48.714;9.584;2023-02-15T17:47:48;5.60;99.90
21616;DHT22;10970;48.714;9.584;2023-02-15T17:50:20;5.50;99.90
21616;DHT22;10970;48.714;9.584;2023-02-15T17:52:46;5.40;99.90
21616;DHT22;10970;48.714;9.584;2023-02-15T17:55:14;5.40;99.90
21616;DHT22;10970;48.714;9.584;2023-02-15T17:58:00;5.30;99.90
21616;DHT22;10970;48.714;9.584;2023-02-15T18:00:26;5.20;99.90
21616;DHT22;10970;48.714;9.584;2023-02-15T18:03:11;5.10;99.90
21616;DHT22;10970;48.714;9.584;2023-02-15T18:05:57;5.00;99.90
21616;DHT22;10970;48.714;9.584;2023-02-15T18:08:41;4.90;99.90
21616;DHT22;10970;48.714;9.584;2023-02-15T18:11:26;4.80;99.90
21616;DHT22;10970;48.714;9.584;2023-02-15T18:14:01;4.70;99.90
21616;DHT22;10970;48.714;9.584;2023-02-15T18:16:34;4.60;99.90
21616;DHT22;10970;48.714;9.584;2023-02-15T18:19:02;4.60;99.90
21616;DHT22;10970;48.714;9.584;2023-02-15T18:21:30;4.50;99.90
21616;DHT22;10970;48.714;9.584;2023-02-15T18:23:56;4.50;99.90
21616;DHT22;10970;48.714;9.584;2023-02-15T18:26:24;4.40;99.90
21616;DHT22;10970;48.714;9.584;2023-02-15T18:28:51;4.40;99.90
21616;DHT22;10970;48.714;9.584;2023-02-15T18:31:18;4.30;99.90
21616;DHT22;10970;48.714;9.584;2023-02-15T18:33:52;4.20;99.90
21616;DHT22;10970;48.714;9.584;2023-02-15T18:36:39;4.20;99.90
21616;DHT22;10970;48.714;9.584;2023-02-15T18:39:28;4.10;99.90
21616;DHT22;10970;48.714;9.584;2023-02-15T18:41:55;4.10;99.90
21616;DHT22;10970;48.714;9.584;2023-02-15T18:44:21;4.00;99.90
21616;DHT22;10970;48.714;9.584;2023-02-15T18:46:47;4.00;99.90
21616;DHT22;10970;48.714;9.584;2023-02-15T18:49:13;3.90;99.90
21616;DHT22;10970;48.714;9.584;2023-02-15T18:51:39;3.80;99.90
21616;DHT22;10970;48.714;9.584;2023-02-15T18:54:11;3.70;99.90
21616;DHT22;10970;48.714;9.584;2023-02-15T18:56:40;3.70;99.90
21616;DHT22;10970;48.714;9.584;2023-02-15T18:59:05;3.70;99.90
21616;DHT22;10970;48.714;9.584;2023-02-15T19:01:31;3.60;99.90
21616;DHT22;10970;48.714;9.584;2023-02-15T19:03:56;3.60;99.90
21616;DHT22;10970;48.714;9.584;2023-02-15T19:06:22;3.50;99.90
21616;DHT22;10970;48.714;9.584;2023-02-15T19:08:50;3.40;99.90
21616;DHT22;10970;48.714;9.584;2023-02-15T19:11:23;3.40;99.90
21616;DHT22;10970;48.714;9.584;2023-02-15T19:13:51;3.40;99.90
21616;DHT22;10970;48.714;9.584;2023-02-15T19:16:27;3.30;99.90
21616;DHT22;10970;48.714;9.584;2023-02-15T19:18:53;3.30;99.90